sensor_id;sensor_type;location;lat;lon;timestamp;temperature;humidity
5346;DHT22;2695;49.444;11.054;2023-08-24T00:00:57;23.50;97.50
5346;DHT22;2695;49.444;11.054;2023-08-24T00:03:25;23.50;97.80
5346;DHT22;2695;49.444;11.054;2023-08-24T00:05:54;23.50;98.00
5346;DHT22;2695;49.444;11.054;2023-08-24T00:08:22;23.50;98.40
5346;DHT22;2695;49.444;11.054;2023-08-24T00:10:51;23.40;99.00
5346;DHT22;2695;49.444;11.054;2023-08-24T00:13:19;23.40;99.50
5346;DHT22;2695;49.444;11.054;2023-08-24T00:15:47;23.40;99.90
5346;DHT22;2695;49.444;11.054;2023-08-24T00:18:15;23.30;99.90
5346;DHT22;2695;49.444;11.054;2023-08-24T00:20:45;23.20;99.90
5346;DHT22;2695;49.444;11.054;2023-08-24T00:23:14;23.10;99.90
5346;DHT22;2695;49.444;11.054;2023-08-24T00:25:42;23.10;99.90
5346;DHT22;2695;49.444;11.054;2023-08-24T00:28:11;23.10;99.90
5346;DHT22;2695;49.444;11.054;2023-08-24T00:30:39;23.00;99.90
5346;DHT22;2695;49.444;11.054;2023-08-24T00:33:07;22.90;99.90
5346;DHT22;2695;49.444;11.054;2023-08-24T00:35:35;22.80;99.90
5346;DHT22;2695;49.444;11.054;2023-08-24T00:38:03;22.70;99.90
5346;DHT22;2695;49.444;11.054;2023-08-24T00:40:31;22.60;99.90
5346;DHT22;2695;49.444;11.054;2023-08-24T00:43:01;22.50;99.90
5346;DHT22;2695;49.444;11.054;2023-08-24T00:45:30;22.40;99.90
5346;DHT22;2695;49.444;11.054;2023-08-24T00:48:00;22.30;99.90
5346;DHT22;2695;49.444;11.054;2023-08-24T00:50:29;22.30;99.90
5346;DHT22;2695;49.444;11.054;2023-08-24T00:52:57;22.30;99.90
5346;DHT22;2695;49.444;11.054;2023-08-24T00:55:25;22.30;99.90
5346;DHT22;2695;49.444;11.054;2023-08-24T00:57:53;22.30;99.90
5346;DHT22;2695;49.444;11.054;2023-08-24T01:00:22;22.20;99.90
5346;DHT22;2695;49.444;11.054;2023-08-24T01:02:51;22.10;99.90
5346;DHT22;2695;49.444;11.054;2023-08-24T01:05:19;22.10;99.90
5346;DHT22;2695;49.444;11.054;2023-08-24T01:07:48;22.00;99.90
5346;DHT22;2695;49.444;11.054;2023-08-24T01:10:16;22.00;99.90
5346;DHT22;2695;49.444;11.054;2023-08-24T01:12:59;22.00;99.90
5346;DHT22;2695;49.444;11.054;2023-08-24T01:15:32;22.00;99.90
5346;DHT22;2695;49.444;11.054;2023-08-24T01:18:10;21.90;99.90
5346;DHT22;2695;49.444;11.054;2023-08-24T01:20:40;21.90;99.90
5346;DHT22;2695;49.444;11.054;2023-08-24T01:23:18;21.80;99.90
5346;DHT22;2695;49.444;11.054;2023-08-24T01:25:51;21.80;99.90
5346;DHT22;2695;49.444;11.054;2023-08-24T01:28:22;21.80;99.90
5346;DHT22;2695;49.444;11.054;2023-08-24T01:30:50;21.80;99.90
5346;DHT22;2695;49.444;11.054;2023-08-24T01:33:19;21.80;99.90
5346;DHT22;2695;49.444;11.054;2023-08-24T01:35:47;21.80;99.90
5346;DHT22;2695;49.444;11.054;2023-08-24T01:38:15;21.70;99.90
5346;DHT22;2695;49.444;11.054;2023-08-24T01:40:52;21.70;99.90
5346;DHT22;2695;49.444;11.054;2023-08-24T01:43:29;21.70;99.90
5346;DHT22;2695;49.444;11.054;2023-08-24T01:46:12;21.70;99.90
5346;DHT22;2695;49.444;11.054;2023-08-24T01:48:43;21.70;99.90
5346;DHT22;2695;49.444;11.054;2023-08-24T01:51:12;21.60;99.90
5346;DHT22;2695;49.444;11.054;2023-08-24T01:53:41;21.60;99.90
5346;DHT22;2695;49.444;11.054;2023-08-24T01:56:10;21.50;99.90
5346;DHT22;2695;49.444;11.054;2023-08-24T01:58:39;21.40;99.90
5346;DHT22;2695;49.444;11.054;2023-08-24T02:01:08;21.40;99.90
5346;DHT22;2695;49.444;11.054;2023-08-24T02:03:37;21.40;99.90
5346;DHT22;2695;49.444;11.054;2023-08-24T02:06:06;21.40;99.90
5346;DHT22;2695;49.444;11.054;2023-08-24T02:08:34;21.30;99.90
5346;DHT22;2695;49.444;11.054;2023-08-24T02:11:03;21.30;99.90
5346;DHT22;2695;49.444;11.054;2023-08-24T02:13:30;21.30;99.90
5346;DHT22;2695;49.444;11.054;2023-08-24T02:16:04;21.30;99.90
5346;DHT22;2695;49.444;11.054;2023-08-24T02:18:32;21.30;99.90
5346;DHT22;2695;49.444;11.054;2023-08-24T02:21:07;21.30;99.90
5346;DHT22;2695;49.444;11.054;2023-08-24T02:23:35;21.30;99.90
5346;DHT22;2695;49.444;11.054;2023-08-24T02:26:03;21.30;99.90
5346;DHT22;2695;49.444;11.054;2023-08-24T02:28:32;21.30;99.90
5346;DHT22;2695;49.444;11.054;2023-08-24T02:31:04;21.20;99.90
5346;DHT22;2695;49.444;11.054;2023-08-24T02:33:32;21.20;99.90
5346;DHT22;2695;49.444;11.054;2023-08-24T02:36:00;21.10;99.90
5346;DHT22;2695;49.444;11.054;2023-08-24T02:38:28;21.10;99.90
5346;DHT22;2695;49.444;11.054;2023-08-24T02:41:03;21.10;99.90
5346;DHT22;2695;49.444;11.054;2023-08-24T02:43:31;21.00;99.90
5346;DHT22;2695;49.444;11.054;2023-08-24T02:46:00;21.00;99.90
5346;DHT22;2695;49.444;11.054;2023-08-24T02:48:31;21.00;99.90
5346;DHT22;2695;49.444;11.054;2023-08-24T02:51:00;21.00;99.90
5346;DHT22;2695;49.444;11.054;2023-08-24T02:53:29;20.90;99.90
5346;DHT22;2695;49.444;11.054;2023-08-24T02:55:58;20.90;99.90
5346;DHT22;2695;49.444;11.054;2023-08-24T02:58:26;20.90;99.90
5346;DHT22;2695;49.444;11.054;2023-08-24T03:00:54;20.80;99.90
5346;DHT22;2695;49.444;11.054;2023-08-24T03:03:23;20.80;99.90
5346;DHT22;2695;49.444;11.054;2023-08-24T03:05:58;20.80;99.90
5346;DHT22;2695;49.444;11.054;2023-08-24T03:08:27;20.70;99.90
5346;DHT22;2695;49.444;11.054;2023-08-24T03:10:55;20.70;99.90
5346;DHT22;2695;49.444;11.054;2023-08-24T03:13:23;20.70;99.90
5346;DHT22;2695;49.444;11.054;2023-08-24T03:15:51;20.70;99.90
5346;DHT22;2695;49.444;11.054;2023-08-24T03:18:19;20.70;99.90
5346;DHT22;2695;49.444;11.054;2023-08-24T03:20:48;20.70;99.90
5346;DHT22;2695;49.444;11.054;2023-08-24T03:23:18;20.70;99.90
5346;DHT22;2695;49.444;11.054;2023-08-24T03:25:46;20.70;99.90
5346;DHT22;2695;49.444;11.054;2023-08-24T03:28:14;20.70;99.90
5346;DHT22;2695;49.444;11.054;2023-08-24T03:30:46;20.70;99.90
5346;DHT22;2695;49.444;11.054;2023-08-24T03:33:15;20.70;99.90
5346;DHT22;2695;49.444;11.054;2023-08-24T03:35:43;20.70;99.90
5346;DHT22;2695;49.444;11.054;2023-08-24T03:38:11;20.60;99.90
5346;DHT22;2695;49.444;11.054;2023-08-24T03:40:41;20.60;99.90
5346;DHT22;2695;49.444;11.054;2023-08-24T03:43:09;20.60;99.90
5346;DHT22;2695;49.444;11.054;2023-08-24T03:45:36;20.60;99.90
5346;DHT22;2695;49.444;11.054;2023-08-24T03:48:05;20.50;99.90
5346;DHT22;2695;49.444;11.054;2023-08-24T03:50:33;20.50;99.90
5346;DHT22;2695;49.444;11.054;2023-08-24T03:53:01;20.60;99.90
5346;DHT22;2695;49.444;11.054;2023-08-24T03:55:30;20.60;99.90
5346;DHT22;2695;49.444;11.054;2023-08-24T03:58:01;20.70;99.90
5346;DHT22;2695;49.444;11.054;2023-08-24T04:00:29;20.70;99.90
5346;DHT22;2695;49.444;11.054;2023-08-24T04:02:57;20.70;99.90
5346;DHT22;2695;49.444;11.054;2023-08-24T04:05:26;20.70;99.90
5346;DHT22;2695;49.444;11.054;2023-08-24T04:07:54;20.60;99.90
5346;DHT22;2695;49.444;11.054;2023-08-24T04:10:22;20.60;99.90
5346;DHT22;2695;49.444;11.054;2023-08-24T04:12:50;20.60;99.90
5346;DHT22;2695;49.444;11.054;2023-08-24T04:15:19;20.60;99.90
5346;DHT22;2695;49.444;11.054;2023-08-24T04:17:47;20.60;99.90
5346;DHT22;2695;49.444;11.054;2023-08-24T04:20:16;20.60;99.90
5346;DHT22;2695;49.444;11.054;2023-08-24T04:22:44;20.60;99.90
5346;DHT22;2695;49.444;11.054;2023-08-24T04:25:12;20.60;99.90
5346;DHT22;2695;49.444;11.054;2023-08-24T04:27:40;20.50;99.90
5346;DHT22;2695;49.444;11.054;2023-08-24T04:30:08;20.50;99.90
5346;DHT22;2695;49.444;11.054;2023-08-24T04:32:45;20.60;99.90
5346;DHT22;2695;49.444;11.054;2023-08-24T04:35:13;20.60;99.90
5346;DHT22;2695;49.444;11.054;2023-08-24T04:37:40;20.80;99.90
5346;DHT22;2695;49.444;11.054;2023-08-24T04:40:09;20.90;99.90
5346;DHT22;2695;49.444;11.054;2023-08-24T04:42:37;21.10;99.90
5346;DHT22;2695;49.444;11.054;2023-08-24T04:45:06;21.30;99.90
5346;DHT22;2695;49.444;11.054;2023-08-24T04:47:35;21.40;99.90
5346;DHT22;2695;49.444;11.054;2023-08-24T04:50:05;21.60;99.90
5346;DHT22;2695;49.444;11.054;2023-08-24T04:52:33;21.70;99.90
5346;DHT22;2695;49.444;11.054;2023-08-24T04:55:01;21.90;99.90
5346;DHT22;2695;49.444;11.054;2023-08-24T04:57:30;22.10;99.90
5346;DHT22;2695;49.444;11.054;2023-08-24T04:59:58;22.30;99.90
5346;DHT22;2695;49.444;11.054;2023-08-24T05:02:26;22.50;99.90
5346;DHT22;2695;49.444;11.054;2023-08-24T05:04:54;22.70;99.90
5346;DHT22;2695;49.444;11.054;2023-08-24T05:07:23;23.00;99.90
5346;DHT22;2695;49.444;11.054;2023-08-24T05:09:53;23.30;99.90
5346;DHT22;2695;49.444;11.054;2023-08-24T05:12:21;23.50;99.90
5346;DHT22;2695;49.444;11.054;2023-08-24T05:14:49;23.80;99.90
5346;DHT22;2695;49.444;11.054;2023-08-24T05:17:17;24.20;99.90
5346;DHT22;2695;49.444;11.054;2023-08-24T05:19:49;24.80;99.90
5346;DHT22;2695;49.444;11.054;2023-08-24T05:22:18;25.20;99.90
5346;DHT22;2695;49.444;11.054;2023-08-24T05:24:47;25.80;99.90
5346;DHT22;2695;49.444;11.054;2023-08-24T05:27:15;26.40;99.90
5346;DHT22;2695;49.444;11.054;2023-08-24T05:29:43;26.90;99.90
5346;DHT22;2695;49.444;11.054;2023-08-24T05:32:11;27.40;99.90
5346;DHT22;2695;49.444;11.054;2023-08-24T05:34:39;27.80;98.20
5346;DHT22;2695;49.444;11.054;2023-08-24T05:37:07;28.20;97.10
5346;DHT22;2695;49.444;11.054;2023-08-24T05:39:35;28.60;96.00
5346;DHT22;2695;49.444;11.054;2023-08-24T05:42:05;29.20;94.20
5346;DHT22;2695;49.444;11.054;2023-08-24T05:44:33;29.90;92.70
5346;DHT22;2695;49.444;11.054;2023-08-24T05:47:01;30.40;91.00
5346;DHT22;2695;49.444;11.054;2023-08-24T05:49:30;31.20;87.80
5346;DHT22;2695;49.444;11.054;2023-08-24T05:51:58;31.50;84.50
5346;DHT22;2695;49.444;11.054;2023-08-24T05:54:26;32.10;80.70
5346;DHT22;2695;49.444;11.054;2023-08-24T05:56:54;32.40;77.60
5346;DHT22;2695;49.444;11.054;2023-08-24T05:59:23;32.00;77.20
5346;DHT22;2695;49.444;11.054;2023-08-24T06:01:51;31.10;79.20
5346;DHT22;2695;49.444;11.054;2023-08-24T06:04:19;30.20;82.40
5346;DHT22;2695;49.444;11.054;2023-08-24T06:06:47;29.20;85.80
5346;DHT22;2695;49.444;11.054;2023-08-24T06:09:14;28.30;88.40
5346;DHT22;2695;49.444;11.054;2023-08-24T06:11:42;27.60;90.70
5346;DHT22;2695;49.444;11.054;2023-08-24T06:14:10;27.00;91.90
5346;DHT22;2695;49.444;11.054;2023-08-24T06:16:40;26.30;93.40
5346;DHT22;2695;49.444;11.054;2023-08-24T06:19:08;25.70;94.80
5346;DHT22;2695;49.444;11.054;2023-08-24T06:21:35;25.10;95.80
5346;DHT22;2695;49.444;11.054;2023-08-24T06:24:04;24.70;97.10
5346;DHT22;2695;49.444;11.054;2023-08-24T06:26:32;24.40;97.90
5346;DHT22;2695;49.444;11.054;2023-08-24T06:29:00;24.20;99.00
5346;DHT22;2695;49.444;11.054;2023-08-24T06:31:28;24.20;99.20
5346;DHT22;2695;49.444;11.054;2023-08-24T06:33:58;24.10;99.90
5346;DHT22;2695;49.444;11.054;2023-08-24T06:36:26;24.20;99.90
5346;DHT22;2695;49.444;11.054;2023-08-24T06:38:55;24.50;99.90
5346;DHT22;2695;49.444;11.054;2023-08-24T06:41:23;24.90;99.90
5346;DHT22;2695;49.444;11.054;2023-08-24T06:43:51;25.50;99.90
5346;DHT22;2695;49.444;11.054;2023-08-24T06:46:20;26.80;98.30
5346;DHT22;2695;49.444;11.054;2023-08-24T06:48:49;27.20;96.40
5346;DHT22;2695;49.444;11.054;2023-08-24T06:51:18;27.10;96.50
5346;DHT22;2695;49.444;11.054;2023-08-24T06:53:46;27.00;96.20
5346;DHT22;2695;49.444;11.054;2023-08-24T06:56:15;27.40;96.10
5346;DHT22;2695;49.444;11.054;2023-08-24T06:58:44;29.00;94.20
5346;DHT22;2695;49.444;11.054;2023-08-24T07:01:12;31.10;90.30
5346;DHT22;2695;49.444;11.054;2023-08-24T07:03:40;32.60;81.60
5346;DHT22;2695;49.444;11.054;2023-08-24T07:06:08;32.60;77.30
5346;DHT22;2695;49.444;11.054;2023-08-24T07:08:40;32.00;77.90
5346;DHT22;2695;49.444;11.054;2023-08-24T07:11:07;31.20;79.40
5346;DHT22;2695;49.444;11.054;2023-08-24T07:13:35;30.30;82.30
5346;DHT22;2695;49.444;11.054;2023-08-24T07:16:03;29.50;84.30
5346;DHT22;2695;49.444;11.054;2023-08-24T07:18:31;29.10;85.80
5346;DHT22;2695;49.444;11.054;2023-08-24T07:20:59;28.70;87.00
5346;DHT22;2695;49.444;11.054;2023-08-24T07:23:27;28.30;88.80
5346;DHT22;2695;49.444;11.054;2023-08-24T07:25:57;28.00;90.00
5346;DHT22;2695;49.444;11.054;2023-08-24T07:28:25;28.00;90.70
5346;DHT22;2695;49.444;11.054;2023-08-24T07:30:53;27.90;91.20
5346;DHT22;2695;49.444;11.054;2023-08-24T07:33:23;28.10;91.50
5346;DHT22;2695;49.444;11.054;2023-08-24T07:35:51;28.60;91.50
5346;DHT22;2695;49.444;11.054;2023-08-24T07:38:19;29.70;89.10
5346;DHT22;2695;49.444;11.054;2023-08-24T07:40:47;30.10;86.90
5346;DHT22;2695;49.444;11.054;2023-08-24T07:43:17;30.90;85.40
5346;DHT22;2695;49.444;11.054;2023-08-24T07:45:45;32.20;81.00
5346;DHT22;2695;49.444;11.054;2023-08-24T07:48:13;32.80;77.70
5346;DHT22;2695;49.444;11.054;2023-08-24T07:50:42;32.40;77.60
5346;DHT22;2695;49.444;11.054;2023-08-24T07:53:10;31.60;79.70
5346;DHT22;2695;49.444;11.054;2023-08-24T07:55:38;31.10;81.80
5346;DHT22;2695;49.444;11.054;2023-08-24T07:58:05;30.70;81.80
5346;DHT22;2695;49.444;11.054;2023-08-24T08:00:35;30.20;82.90
5346;DHT22;2695;49.444;11.054;2023-08-24T08:03:03;30.00;84.50
5346;DHT22;2695;49.444;11.054;2023-08-24T08:05:31;31.40;82.40
5346;DHT22;2695;49.444;11.054;2023-08-24T08:07:59;33.70;75.60
5346;DHT22;2695;49.444;11.054;2023-08-24T08:10:27;35.80;67.00
5346;DHT22;2695;49.444;11.054;2023-08-24T08:12:55;37.40;60.50
5346;DHT22;2695;49.444;11.054;2023-08-24T08:15:23;38.80;54.50
5346;DHT22;2695;49.444;11.054;2023-08-24T08:17:53;39.60;51.90
5346;DHT22;2695;49.444;11.054;2023-08-24T08:20:21;40.20;49.70
5346;DHT22;2695;49.444;11.054;2023-08-24T08:22:49;41.00;47.00
5346;DHT22;2695;49.444;11.054;2023-08-24T08:25:17;41.40;45.50
5346;DHT22;2695;49.444;11.054;2023-08-24T08:27:45;41.80;43.90
5346;DHT22;2695;49.444;11.054;2023-08-24T08:30:14;42.10;42.80
5346;DHT22;2695;49.444;11.054;2023-08-24T08:32:44;42.60;40.70
5346;DHT22;2695;49.444;11.054;2023-08-24T08:35:14;42.90;40.30
5346;DHT22;2695;49.444;11.054;2023-08-24T08:37:42;43.10;39.40
5346;DHT22;2695;49.444;11.054;2023-08-24T08:40:11;42.80;39.20
5346;DHT22;2695;49.444;11.054;2023-08-24T08:42:39;42.40;39.40
5346;DHT22;2695;49.444;11.054;2023-08-24T08:45:09;42.40;38.90
5346;DHT22;2695;49.444;11.054;2023-08-24T08:47:38;42.80;37.70
5346;DHT22;2695;49.444;11.054;2023-08-24T08:50:09;43.10;37.40
5346;DHT22;2695;49.444;11.054;2023-08-24T08:52:38;43.40;37.40
5346;DHT22;2695;49.444;11.054;2023-08-24T08:55:06;43.70;36.60
5346;DHT22;2695;49.444;11.054;2023-08-24T08:57:37;43.90;35.60
5346;DHT22;2695;49.444;11.054;2023-08-24T09:00:07;44.00;35.80
5346;DHT22;2695;49.444;11.054;2023-08-24T09:02:42;44.10;34.50
5346;DHT22;2695;49.444;11.054;2023-08-24T09:05:11;43.80;34.70
5346;DHT22;2695;49.444;11.054;2023-08-24T09:07:41;43.70;34.20
5346;DHT22;2695;49.444;11.054;2023-08-24T09:10:09;43.70;34.40
5346;DHT22;2695;49.444;11.054;2023-08-24T09:12:37;43.30;34.30
5346;DHT22;2695;49.444;11.054;2023-08-24T09:15:06;43.10;34.70
5346;DHT22;2695;49.444;11.054;2023-08-24T09:17:34;43.60;34.80
5346;DHT22;2695;49.444;11.054;2023-08-24T09:20:06;43.50;34.60
5346;DHT22;2695;49.444;11.054;2023-08-24T09:22:35;43.40;34.80
5346;DHT22;2695;49.444;11.054;2023-08-24T09:25:06;43.30;34.30
5346;DHT22;2695;49.444;11.054;2023-08-24T09:27:35;41.40;37.10
5346;DHT22;2695;49.444;11.054;2023-08-24T09:30:06;38.90;39.80
5346;DHT22;2695;49.444;11.054;2023-08-24T09:32:34;37.20;42.50
5346;DHT22;2695;49.444;11.054;2023-08-24T09:35:03;35.80;45.20
5346;DHT22;2695;49.444;11.054;2023-08-24T09:37:33;35.30;47.50
5346;DHT22;2695;49.444;11.054;2023-08-24T09:40:04;35.40;46.20
5346;DHT22;2695;49.444;11.054;2023-08-24T09:42:39;35.20;46.60
5346;DHT22;2695;49.444;11.054;2023-08-24T09:45:11;35.20;47.40
5346;DHT22;2695;49.444;11.054;2023-08-24T09:47:45;34.90;48.00
5346;DHT22;2695;49.444;11.054;2023-08-24T09:50:14;36.00;47.20
5346;DHT22;2695;49.444;11.054;2023-08-24T09:52:42;37.90;44.50
5346;DHT22;2695;49.444;11.054;2023-08-24T09:55:12;39.60;41.90
5346;DHT22;2695;49.444;11.054;2023-08-24T09:57:45;41.00;39.60
5346;DHT22;2695;49.444;11.054;2023-08-24T10:00:13;41.60;37.70
5346;DHT22;2695;49.444;11.054;2023-08-24T10:02:47;42.10;37.60
5346;DHT22;2695;49.444;11.054;2023-08-24T10:05:20;42.50;37.30
5346;DHT22;2695;49.444;11.054;2023-08-24T10:08:06;42.90;36.60
5346;DHT22;2695;49.444;11.054;2023-08-24T10:10:37;43.40;36.40
5346;DHT22;2695;49.444;11.054;2023-08-24T10:13:13;43.70;35.20
5346;DHT22;2695;49.444;11.054;2023-08-24T10:15:42;43.90;35.20
5346;DHT22;2695;49.444;11.054;2023-08-24T10:18:15;43.50;35.20
5346;DHT22;2695;49.444;11.054;2023-08-24T10:20:43;43.50;35.10
5346;DHT22;2695;49.444;11.054;2023-08-24T10:23:15;42.80;36.20
5346;DHT22;2695;49.444;11.054;2023-08-24T10:25:44;42.30;36.10
5346;DHT22;2695;49.444;11.054;2023-08-24T10:28:15;42.30;36.70
5346;DHT22;2695;49.444;11.054;2023-08-24T10:30:44;42.10;36.10
5346;DHT22;2695;49.444;11.054;2023-08-24T10:33:13;41.70;36.80
5346;DHT22;2695;49.444;11.054;2023-08-24T10:35:42;41.90;37.10
5346;DHT22;2695;49.444;11.054;2023-08-24T10:38:23;42.00;36.90
5346;DHT22;2695;49.444;11.054;2023-08-24T10:40:51;41.80;36.70
5346;DHT22;2695;49.444;11.054;2023-08-24T10:43:22;41.80;37.40
5346;DHT22;2695;49.444;11.054;2023-08-24T10:45:57;41.60;37.40
5346;DHT22;2695;49.444;11.054;2023-08-24T10:48:27;41.00;38.80
5346;DHT22;2695;49.444;11.054;2023-08-24T10:51:17;40.80;38.80
5346;DHT22;2695;49.444;11.054;2023-08-24T10:53:50;41.00;38.30
5346;DHT22;2695;49.444;11.054;2023-08-24T10:56:19;40.60;38.80
5346;DHT22;2695;49.444;11.054;2023-08-24T10:59:11;40.00;39.60
5346;DHT22;2695;49.444;11.054;2023-08-24T11:01:40;39.70;40.60
5346;DHT22;2695;49.444;11.054;2023-08-24T11:04:10;40.00;40.40
5346;DHT22;2695;49.444;11.054;2023-08-24T11:06:52;40.30;39.80
5346;DHT22;2695;49.444;11.054;2023-08-24T11:09:22;40.60;39.10
5346;DHT22;2695;49.444;11.054;2023-08-24T11:11:57;40.40;39.50
5346;DHT22;2695;49.444;11.054;2023-08-24T11:14:27;40.20;39.80
5346;DHT22;2695;49.444;11.054;2023-08-24T11:16:58;40.20;40.00
5346;DHT22;2695;49.444;11.054;2023-08-24T11:19:27;39.70;39.60
5346;DHT22;2695;49.444;11.054;2023-08-24T11:21:57;38.80;41.70
5346;DHT22;2695;49.444;11.054;2023-08-24T11:24:26;38.50;42.20
5346;DHT22;2695;49.444;11.054;2023-08-24T11:26:55;38.10;43.70
5346;DHT22;2695;49.444;11.054;2023-08-24T11:29:28;37.90;43.80
5346;DHT22;2695;49.444;11.054;2023-08-24T11:31:57;38.10;42.80
5346;DHT22;2695;49.444;11.054;2023-08-24T11:34:25;38.10;42.00
5346;DHT22;2695;49.444;11.054;2023-08-24T11:36:53;38.00;42.90
5346;DHT22;2695;49.444;11.054;2023-08-24T11:39:22;37.70;43.40
5346;DHT22;2695;49.444;11.054;2023-08-24T11:42:00;37.40;43.90
5346;DHT22;2695;49.444;11.054;2023-08-24T11:44:29;36.90;44.80
5346;DHT22;2695;49.444;11.054;2023-08-24T11:46:58;36.60;45.50
5346;DHT22;2695;49.444;11.054;2023-08-24T11:49:26;36.60;45.40
5346;DHT22;2695;49.444;11.054;2023-08-24T11:51:55;36.60;45.30
5346;DHT22;2695;49.444;11.054;2023-08-24T11:54:23;36.30;45.80
5346;DHT22;2695;49.444;11.054;2023-08-24T11:56:51;36.10;46.20
5346;DHT22;2695;49.444;11.054;2023-08-24T11:59:20;35.80;45.90
5346;DHT22;2695;49.444;11.054;2023-08-24T12:01:49;35.70;46.80
5346;DHT22;2695;49.444;11.054;2023-08-24T12:04:19;35.40;46.20
5346;DHT22;2695;49.444;11.054;2023-08-24T12:06:47;35.20;46.40
5346;DHT22;2695;49.444;11.054;2023-08-24T12:09:15;35.50;45.70
5346;DHT22;2695;49.444;11.054;2023-08-24T12:11:43;35.90;45.00
5346;DHT22;2695;49.444;11.054;2023-08-24T12:14:17;35.90;43.90
5346;DHT22;2695;49.444;11.054;2023-08-24T12:16:45;35.70;44.60
5346;DHT22;2695;49.444;11.054;2023-08-24T12:19:14;35.50;45.10
5346;DHT22;2695;49.444;11.054;2023-08-24T12:21:43;35.30;44.70
5346;DHT22;2695;49.444;11.054;2023-08-24T12:24:14;35.10;45.60
5346;DHT22;2695;49.444;11.054;2023-08-24T12:26:42;34.90;45.60
5346;DHT22;2695;49.444;11.054;2023-08-24T12:29:10;34.90;45.90
5346;DHT22;2695;49.444;11.054;2023-08-24T12:31:42;34.60;46.40
5346;DHT22;2695;49.444;11.054;2023-08-24T12:34:15;34.50;46.40
5346;DHT22;2695;49.444;11.054;2023-08-24T12:36:44;34.50;46.70
5346;DHT22;2695;49.444;11.054;2023-08-24T12:39:13;34.20;47.10
5346;DHT22;2695;49.444;11.054;2023-08-24T12:41:41;34.30;47.60
5346;DHT22;2695;49.444;11.054;2023-08-24T12:44:09;34.20;46.70
5346;DHT22;2695;49.444;11.054;2023-08-24T12:46:41;34.20;47.10
5346;DHT22;2695;49.444;11.054;2023-08-24T12:49:09;34.10;47.50
5346;DHT22;2695;49.444;11.054;2023-08-24T12:51:38;34.10;48.80
5346;DHT22;2695;49.444;11.054;2023-08-24T12:54:08;34.00;48.70
5346;DHT22;2695;49.444;11.054;2023-08-24T12:56:38;34.00;49.50
5346;DHT22;2695;49.444;11.054;2023-08-24T12:59:06;34.10;49.40
5346;DHT22;2695;49.444;11.054;2023-08-24T13:01:34;34.00;48.70
5346;DHT22;2695;49.444;11.054;2023-08-24T13:04:03;33.90;49.30
5346;DHT22;2695;49.444;11.054;2023-08-24T13:06:30;33.90;48.60
5346;DHT22;2695;49.444;11.054;2023-08-24T13:09:01;33.80;48.70
5346;DHT22;2695;49.444;11.054;2023-08-24T13:11:30;33.80;48.20
5346;DHT22;2695;49.444;11.054;2023-08-24T13:13:58;33.60;49.00
5346;DHT22;2695;49.444;11.054;2023-08-24T13:16:26;33.40;49.40
5346;DHT22;2695;49.444;11.054;2023-08-24T13:18:55;33.40;49.30
5346;DHT22;2695;49.444;11.054;2023-08-24T13:21:24;33.30;49.80
5346;DHT22;2695;49.444;11.054;2023-08-24T13:23:52;33.10;50.40
5346;DHT22;2695;49.444;11.054;2023-08-24T13:26:22;33.20;50.70
5346;DHT22;2695;49.444;11.054;2023-08-24T13:28:51;33.20;50.80
5346;DHT22;2695;49.444;11.054;2023-08-24T13:31:19;33.00;50.60
5346;DHT22;2695;49.444;11.054;2023-08-24T13:33:47;32.90;51.20
5346;DHT22;2695;49.444;11.054;2023-08-24T13:36:15;32.90;50.90
5346;DHT22;2695;49.444;11.054;2023-08-24T13:38:43;32.80;51.60
5346;DHT22;2695;49.444;11.054;2023-08-24T13:41:12;32.70;50.50
5346;DHT22;2695;49.444;11.054;2023-08-24T13:43:41;32.70;50.30
5346;DHT22;2695;49.444;11.054;2023-08-24T13:46:09;32.70;50.00
5346;DHT22;2695;49.444;11.054;2023-08-24T13:48:37;32.50;50.20
5346;DHT22;2695;49.444;11.054;2023-08-24T13:51:05;32.30;50.60
5346;DHT22;2695;49.444;11.054;2023-08-24T13:53:35;32.30;50.70
5346;DHT22;2695;49.444;11.054;2023-08-24T13:56:03;32.10;50.90
5346;DHT22;2695;49.444;11.054;2023-08-24T13:58:31;32.10;51.80
5346;DHT22;2695;49.444;11.054;2023-08-24T14:01:01;32.20;51.40
5346;DHT22;2695;49.444;11.054;2023-08-24T14:03:30;32.20;51.50
5346;DHT22;2695;49.444;11.054;2023-08-24T14:05:59;32.30;51.50
5346;DHT22;2695;49.444;11.054;2023-08-24T14:08:27;32.40;52.40
5346;DHT22;2695;49.444;11.054;2023-08-24T14:10:55;32.60;52.10
5346;DHT22;2695;49.444;11.054;2023-08-24T14:13:23;32.80;51.40
5346;DHT22;2695;49.444;11.054;2023-08-24T14:15:52;32.90;52.00
5346;DHT22;2695;49.444;11.054;2023-08-24T14:18:21;33.00;52.40
5346;DHT22;2695;49.444;11.054;2023-08-24T14:20:49;32.90;52.00
5346;DHT22;2695;49.444;11.054;2023-08-24T14:23:19;32.80;52.20
5346;DHT22;2695;49.444;11.054;2023-08-24T14:25:47;32.90;51.80
5346;DHT22;2695;49.444;11.054;2023-08-24T14:28:22;33.10;51.70
5346;DHT22;2695;49.444;11.054;2023-08-24T14:30:50;33.10;51.20
5346;DHT22;2695;49.444;11.054;2023-08-24T14:33:18;33.00;51.50
5346;DHT22;2695;49.444;11.054;2023-08-24T14:35:51;32.90;52.20
5346;DHT22;2695;49.444;11.054;2023-08-24T14:38:20;32.90;52.20
5346;DHT22;2695;49.444;11.054;2023-08-24T14:40:48;32.90;51.50
5346;DHT22;2695;49.444;11.054;2023-08-24T14:43:16;32.90;52.10
5346;DHT22;2695;49.444;11.054;2023-08-24T14:45:44;32.80;52.70
5346;DHT22;2695;49.444;11.054;2023-08-24T14:48:12;32.80;52.70
5346;DHT22;2695;49.444;11.054;2023-08-24T14:50:40;32.70;53.20
5346;DHT22;2695;49.444;11.054;2023-08-24T14:53:09;32.60;53.60
5346;DHT22;2695;49.444;11.054;2023-08-24T14:55:38;32.70;53.60
5346;DHT22;2695;49.444;11.054;2023-08-24T14:58:06;32.70;53.30
5346;DHT22;2695;49.444;11.054;2023-08-24T15:00:34;32.70;53.00
5346;DHT22;2695;49.444;11.054;2023-08-24T15:03:02;32.60;53.50
5346;DHT22;2695;49.444;11.054;2023-08-24T15:05:31;32.60;53.50
5346;DHT22;2695;49.444;11.054;2023-08-24T15:07:58;32.70;53.60
5346;DHT22;2695;49.444;11.054;2023-08-24T15:10:28;32.50;53.40
5346;DHT22;2695;49.444;11.054;2023-08-24T15:12:56;32.40;53.50
5346;DHT22;2695;49.444;11.054;2023-08-24T15:15:23;32.40;53.70
5346;DHT22;2695;49.444;11.054;2023-08-24T15:17:51;32.30;53.80
5346;DHT22;2695;49.444;11.054;2023-08-24T15:20:19;32.30;53.50
5346;DHT22;2695;49.444;11.054;2023-08-24T15:22:48;32.30;53.80
5346;DHT22;2695;49.444;11.054;2023-08-24T15:25:16;32.00;53.60
5346;DHT22;2695;49.444;11.054;2023-08-24T15:27:45;32.40;53.80
5346;DHT22;2695;49.444;11.054;2023-08-24T15:30:13;32.40;54.00
5346;DHT22;2695;49.444;11.054;2023-08-24T15:32:41;32.40;54.20
5346;DHT22;2695;49.444;11.054;2023-08-24T15:35:09;32.30;54.60
5346;DHT22;2695;49.444;11.054;2023-08-24T15:37:37;32.20;54.70
5346;DHT22;2695;49.444;11.054;2023-08-24T15:40:07;32.10;54.70
5346;DHT22;2695;49.444;11.054;2023-08-24T15:42:35;32.10;55.60
5346;DHT22;2695;49.444;11.054;2023-08-24T15:45:05;32.00;55.40
5346;DHT22;2695;49.444;11.054;2023-08-24T15:47:33;31.90;55.60
5346;DHT22;2695;49.444;11.054;2023-08-24T15:50:01;31.90;55.70
5346;DHT22;2695;49.444;11.054;2023-08-24T15:52:29;32.00;56.10
5346;DHT22;2695;49.444;11.054;2023-08-24T15:54:57;32.10;54.90
5346;DHT22;2695;49.444;11.054;2023-08-24T15:57:25;32.10;55.20